sensor_id;sensor_type;location;lat;lon;timestamp;P1;durP1;ratioP1;P2;durP2;ratioP2
16354;SDS011;8287;51.644;8.494;2023-08-06T00:00:59;4.60;;;3.05;;
16354;SDS011;8287;51.644;8.494;2023-08-06T00:03:26;4.10;;;2.53;;
16354;SDS011;8287;51.644;8.494;2023-08-06T00:05:52;2.80;;;2.33;;
16354;SDS011;8287;51.644;8.494;2023-08-06T00:08:19;3.33;;;3.03;;
16354;SDS011;8287;51.644;8.494;2023-08-06T00:10:47;2.85;;;2.42;;
16354;SDS011;8287;51.644;8.494;2023-08-06T00:13:13;2.50;;;2.30;;
16354;SDS011;8287;51.644;8.494;2023-08-06T00:15:41;3.42;;;2.60;;
16354;SDS011;8287;51.644;8.494;2023-08-06T00:18:08;2.80;;;2.60;;
16354;SDS011;8287;51.644;8.494;2023-08-06T00:20:35;4.50;;;3.10;;
16354;SDS011;8287;51.644;8.494;2023-08-06T00:23:04;3.30;;;2.38;;
16354;SDS011;8287;51.644;8.494;2023-08-06T00:25:31;3.25;;;2.95;;
16354;SDS011;8287;51.644;8.494;2023-08-06T00:27:57;2.60;;;2.38;;
16354;SDS011;8287;51.644;8.494;2023-08-06T00:30:24;2.40;;;2.20;;
16354;SDS011;8287;51.644;8.494;2023-08-06T00:32:52;2.90;;;2.70;;
16354;SDS011;8287;51.644;8.494;2023-08-06T00:35:18;2.70;;;2.50;;
16354;SDS011;8287;51.644;8.494;2023-08-06T00:37:45;3.72;;;2.20;;
16354;SDS011;8287;51.644;8.494;2023-08-06T00:40:12;2.67;;;2.47;;
16354;SDS011;8287;51.644;8.494;2023-08-06T00:42:39;6.15;;;2.50;;
16354;SDS011;8287;51.644;8.494;2023-08-06T00:45:06;5.72;;;2.83;;
16354;SDS011;8287;51.644;8.494;2023-08-06T00:47:33;2.55;;;2.30;;
16354;SDS011;8287;51.644;8.494;2023-08-06T00:50:01;2.80;;;2.60;;
16354;SDS011;8287;51.644;8.494;2023-08-06T00:52:28;2.60;;;2.40;;
16354;SDS011;8287;51.644;8.494;2023-08-06T00:54:55;2.83;;;2.03;;
16354;SDS011;8287;51.644;8.494;2023-08-06T00:57:21;2.25;;;2.00;;
16354;SDS011;8287;51.644;8.494;2023-08-06T00:59:50;2.50;;;2.30;;
16354;SDS011;8287;51.644;8.494;2023-08-06T01:02:17;4.32;;;2.53;;
16354;SDS011;8287;51.644;8.494;2023-08-06T01:04:44;2.97;;;2.70;;
16354;SDS011;8287;51.644;8.494;2023-08-06T01:07:14;3.97;;;3.05;;
16354;SDS011;8287;51.644;8.494;2023-08-06T01:09:50;3.95;;;3.28;;
16354;SDS011;8287;51.644;8.494;2023-08-06T01:12:29;4.55;;;3.55;;
16354;SDS011;8287;51.644;8.494;2023-08-06T01:15:05;5.05;;;3.55;;
16354;SDS011;8287;51.644;8.494;2023-08-06T01:17:37;5.78;;;3.78;;
16354;SDS011;8287;51.644;8.494;2023-08-06T01:20:05;3.67;;;3.28;;
16354;SDS011;8287;51.644;8.494;2023-08-06T01:22:34;3.70;;;2.83;;
16354;SDS011;8287;51.644;8.494;2023-08-06T01:25:01;3.00;;;2.78;;
16354;SDS011;8287;51.644;8.494;2023-08-06T01:27:28;5.47;;;3.05;;
16354;SDS011;8287;51.644;8.494;2023-08-06T01:30:02;4.68;;;3.65;;
16354;SDS011;8287;51.644;8.494;2023-08-06T01:32:34;5.75;;;3.42;;
16354;SDS011;8287;51.644;8.494;2023-08-06T01:35:02;4.13;;;3.55;;
16354;SDS011;8287;51.644;8.494;2023-08-06T01:37:31;4.22;;;3.53;;
16354;SDS011;8287;51.644;8.494;2023-08-06T01:39:59;5.53;;;3.58;;
16354;SDS011;8287;51.644;8.494;2023-08-06T01:42:25;2.83;;;2.63;;
16354;SDS011;8287;51.644;8.494;2023-08-06T01:44:52;3.65;;;2.92;;
16354;SDS011;8287;51.644;8.494;2023-08-06T01:47:19;5.40;;;2.72;;
16354;SDS011;8287;51.644;8.494;2023-08-06T01:49:45;6.35;;;3.10;;
16354;SDS011;8287;51.644;8.494;2023-08-06T01:52:12;3.88;;;2.90;;
16354;SDS011;8287;51.644;8.494;2023-08-06T01:54:39;4.78;;;3.33;;
16354;SDS011;8287;51.644;8.494;2023-08-06T01:57:07;3.25;;;2.13;;
16354;SDS011;8287;51.644;8.494;2023-08-06T01:59:34;3.78;;;2.67;;
16354;SDS011;8287;51.644;8.494;2023-08-06T02:02:00;3.25;;;2.95;;
16354;SDS011;8287;51.644;8.494;2023-08-06T02:04:27;5.00;;;3.65;;
16354;SDS011;8287;51.644;8.494;2023-08-06T02:06:53;4.50;;;3.40;;
16354;SDS011;8287;51.644;8.494;2023-08-06T02:09:20;4.13;;;3.72;;
16354;SDS011;8287;51.644;8.494;2023-08-06T02:11:47;5.07;;;3.67;;
16354;SDS011;8287;51.644;8.494;2023-08-06T02:14:15;5.28;;;3.58;;
16354;SDS011;8287;51.644;8.494;2023-08-06T02:16:41;7.20;;;4.72;;
16354;SDS011;8287;51.644;8.494;2023-08-06T02:19:08;4.70;;;3.15;;
16354;SDS011;8287;51.644;8.494;2023-08-06T02:21:35;4.78;;;2.53;;
16354;SDS011;8287;51.644;8.494;2023-08-06T02:24:01;3.42;;;2.92;;
16354;SDS011;8287;51.644;8.494;2023-08-06T02:26:28;3.20;;;2.90;;
16354;SDS011;8287;51.644;8.494;2023-08-06T02:28:55;3.58;;;3.25;;
16354;SDS011;8287;51.644;8.494;2023-08-06T02:31:23;5.30;;;3.20;;
16354;SDS011;8287;51.644;8.494;2023-08-06T02:33:50;7.80;;;3.25;;
16354;SDS011;8287;51.644;8.494;2023-08-06T02:36:17;4.05;;;3.65;;
16354;SDS011;8287;51.644;8.494;2023-08-06T02:38:43;7.93;;;3.88;;
16354;SDS011;8287;51.644;8.494;2023-08-06T02:41:10;3.80;;;3.45;;
16354;SDS011;8287;51.644;8.494;2023-08-06T02:43:37;4.28;;;3.13;;
16354;SDS011;8287;51.644;8.494;2023-08-06T02:46:03;5.13;;;4.07;;
16354;SDS011;8287;51.644;8.494;2023-08-06T02:48:31;4.65;;;3.80;;
16354;SDS011;8287;51.644;8.494;2023-08-06T02:50:58;3.97;;;3.50;;
16354;SDS011;8287;51.644;8.494;2023-08-06T02:53:26;4.53;;;3.60;;
16354;SDS011;8287;51.644;8.494;2023-08-06T02:55:52;4.32;;;2.97;;
16354;SDS011;8287;51.644;8.494;2023-08-06T02:58:19;2.78;;;2.55;;
16354;SDS011;8287;51.644;8.494;2023-08-06T03:00:58;3.40;;;3.05;;
16354;SDS011;8287;51.644;8.494;2023-08-06T03:03:26;3.85;;;3.25;;
16354;SDS011;8287;51.644;8.494;2023-08-06T03:05:54;5.95;;;4.07;;
16354;SDS011;8287;51.644;8.494;2023-08-06T03:08:21;4.55;;;4.15;;
16354;SDS011;8287;51.644;8.494;2023-08-06T03:10:48;4.28;;;3.88;;
16354;SDS011;8287;51.644;8.494;2023-08-06T03:13:15;4.97;;;4.07;;
16354;SDS011;8287;51.644;8.494;2023-08-06T03:15:41;4.53;;;3.50;;
16354;SDS011;8287;51.644;8.494;2023-08-06T03:18:08;3.92;;;3.55;;
16354;SDS011;8287;51.644;8.494;2023-08-06T03:20:35;3.40;;;3.10;;
16354;SDS011;8287;51.644;8.494;2023-08-06T03:23:03;3.38;;;3.08;;
16354;SDS011;8287;51.644;8.494;2023-08-06T03:25:30;3.47;;;3.20;;
16354;SDS011;8287;51.644;8.494;2023-08-06T03:27:56;6.30;;;4.00;;
16354;SDS011;8287;51.644;8.494;2023-08-06T03:30:23;4.50;;;3.80;;
16354;SDS011;8287;51.644;8.494;2023-08-06T03:32:49;4.60;;;4.18;;
16354;SDS011;8287;51.644;8.494;2023-08-06T03:35:16;6.00;;;3.85;;
16354;SDS011;8287;51.644;8.494;2023-08-06T03:37:43;3.95;;;3.65;;
16354;SDS011;8287;51.644;8.494;2023-08-06T03:40:11;4.07;;;3.67;;
16354;SDS011;8287;51.644;8.494;2023-08-06T03:42:37;4.05;;;3.65;;
16354;SDS011;8287;51.644;8.494;2023-08-06T03:45:05;3.72;;;3.20;;
16354;SDS011;8287;51.644;8.494;2023-08-06T03:47:32;3.58;;;3.28;;
16354;SDS011;8287;51.644;8.494;2023-08-06T03:49:59;3.17;;;2.90;;
16354;SDS011;8287;51.644;8.494;2023-08-06T03:52:25;4.63;;;2.70;;
16354;SDS011;8287;51.644;8.494;2023-08-06T03:54:52;5.57;;;3.70;;
16354;SDS011;8287;51.644;8.494;2023-08-06T03:57:20;3.83;;;3.22;;
16354;SDS011;8287;51.644;8.494;2023-08-06T03:59:46;3.63;;;3.33;;
16354;SDS011;8287;51.644;8.494;2023-08-06T04:02:13;4.28;;;3.88;;
16354;SDS011;8287;51.644;8.494;2023-08-06T04:04:40;4.13;;;3.80;;
16354;SDS011;8287;51.644;8.494;2023-08-06T04:07:06;4.30;;;3.90;;
16354;SDS011;8287;51.644;8.494;2023-08-06T04:09:33;6.25;;;3.78;;
16354;SDS011;8287;51.644;8.494;2023-08-06T04:12:01;3.60;;;3.30;;
16354;SDS011;8287;51.644;8.494;2023-08-06T04:14:31;4.40;;;3.20;;
16354;SDS011;8287;51.644;8.494;2023-08-06T04:16:58;3.70;;;3.40;;
16354;SDS011;8287;51.644;8.494;2023-08-06T04:19:25;3.95;;;3.60;;
16354;SDS011;8287;51.644;8.494;2023-08-06T04:21:51;4.53;;;4.10;;
16354;SDS011;8287;51.644;8.494;2023-08-06T04:24:18;4.93;;;4.43;;
16354;SDS011;8287;51.644;8.494;2023-08-06T04:26:45;3.95;;;3.60;;
16354;SDS011;8287;51.644;8.494;2023-08-06T04:29:11;4.55;;;3.55;;
16354;SDS011;8287;51.644;8.494;2023-08-06T04:31:39;5.82;;;4.28;;
16354;SDS011;8287;51.644;8.494;2023-08-06T04:34:06;4.72;;;3.45;;
16354;SDS011;8287;51.644;8.494;2023-08-06T04:36:34;4.03;;;3.63;;
16354;SDS011;8287;51.644;8.494;2023-08-06T04:39:01;3.95;;;3.65;;
16354;SDS011;8287;51.644;8.494;2023-08-06T04:41:27;3.72;;;3.42;;
16354;SDS011;8287;51.644;8.494;2023-08-06T04:43:54;5.25;;;4.00;;
16354;SDS011;8287;51.644;8.494;2023-08-06T04:46:22;5.40;;;4.15;;
16354;SDS011;8287;51.644;8.494;2023-08-06T04:48:51;5.00;;;4.25;;
16354;SDS011;8287;51.644;8.494;2023-08-06T04:51:18;7.05;;;4.63;;
16354;SDS011;8287;51.644;8.494;2023-08-06T04:53:44;5.07;;;4.55;;
16354;SDS011;8287;51.644;8.494;2023-08-06T04:56:11;5.25;;;4.43;;
16354;SDS011;8287;51.644;8.494;2023-08-06T04:58:40;8.18;;;5.53;;
16354;SDS011;8287;51.644;8.494;2023-08-06T05:01:07;6.65;;;5.68;;
16354;SDS011;8287;51.644;8.494;2023-08-06T05:03:34;5.55;;;5.03;;
16354;SDS011;8287;51.644;8.494;2023-08-06T05:06:02;7.28;;;5.22;;
16354;SDS011;8287;51.644;8.494;2023-08-06T05:08:29;5.03;;;4.47;;
16354;SDS011;8287;51.644;8.494;2023-08-06T05:10:55;5.68;;;4.15;;
16354;SDS011;8287;51.644;8.494;2023-08-06T05:13:22;5.82;;;5.32;;
16354;SDS011;8287;51.644;8.494;2023-08-06T05:15:50;8.25;;;5.45;;
16354;SDS011;8287;51.644;8.494;2023-08-06T05:18:17;6.10;;;5.13;;
16354;SDS011;8287;51.644;8.494;2023-08-06T05:20:44;5.35;;;4.80;;
16354;SDS011;8287;51.644;8.494;2023-08-06T05:23:12;8.02;;;5.15;;
16354;SDS011;8287;51.644;8.494;2023-08-06T05:25:39;6.35;;;5.60;;
16354;SDS011;8287;51.644;8.494;2023-08-06T05:28:05;6.60;;;5.93;;
16354;SDS011;8287;51.644;8.494;2023-08-06T05:30:32;6.63;;;6.00;;
16354;SDS011;8287;51.644;8.494;2023-08-06T05:33:00;9.05;;;5.82;;
16354;SDS011;8287;51.644;8.494;2023-08-06T05:35:26;6.72;;;6.13;;
16354;SDS011;8287;51.644;8.494;2023-08-06T05:37:53;8.07;;;6.68;;
16354;SDS011;8287;51.644;8.494;2023-08-06T05:40:21;7.18;;;6.35;;
16354;SDS011;8287;51.644;8.494;2023-08-06T05:42:49;6.30;;;5.45;;
16354;SDS011;8287;51.644;8.494;2023-08-06T05:45:16;7.30;;;5.50;;
16354;SDS011;8287;51.644;8.494;2023-08-06T05:47:43;7.07;;;5.10;;
16354;SDS011;8287;51.644;8.494;2023-08-06T05:50:10;7.30;;;5.53;;
16354;SDS011;8287;51.644;8.494;2023-08-06T05:52:37;5.85;;;5.18;;
16354;SDS011;8287;51.644;8.494;2023-08-06T05:55:04;7.65;;;5.88;;
16354;SDS011;8287;51.644;8.494;2023-08-06T05:57:33;5.45;;;4.95;;
16354;SDS011;8287;51.644;8.494;2023-08-06T05:59:59;6.60;;;4.75;;
16354;SDS011;8287;51.644;8.494;2023-08-06T06:02:27;6.35;;;5.47;;
16354;SDS011;8287;51.644;8.494;2023-08-06T06:04:53;6.53;;;5.93;;
16354;SDS011;8287;51.644;8.494;2023-08-06T06:07:20;9.32;;;5.47;;
16354;SDS011;8287;51.644;8.494;2023-08-06T06:09:47;7.10;;;5.55;;
16354;SDS011;8287;51.644;8.494;2023-08-06T06:12:13;5.70;;;4.85;;
16354;SDS011;8287;51.644;8.494;2023-08-06T06:14:41;5.82;;;5.20;;
16354;SDS011;8287;51.644;8.494;2023-08-06T06:17:08;6.82;;;5.43;;
16354;SDS011;8287;51.644;8.494;2023-08-06T06:19:35;7.75;;;5.75;;
16354;SDS011;8287;51.644;8.494;2023-08-06T06:22:01;5.80;;;5.20;;
16354;SDS011;8287;51.644;8.494;2023-08-06T06:24:28;5.72;;;5.22;;
16354;SDS011;8287;51.644;8.494;2023-08-06T06:26:55;7.82;;;5.85;;
16354;SDS011;8287;51.644;8.494;2023-08-06T06:29:22;5.18;;;4.55;;
16354;SDS011;8287;51.644;8.494;2023-08-06T06:31:50;7.90;;;5.43;;
16354;SDS011;8287;51.644;8.494;2023-08-06T06:34:16;6.43;;;4.43;;
16354;SDS011;8287;51.644;8.494;2023-08-06T06:36:43;6.00;;;5.10;;
16354;SDS011;8287;51.644;8.494;2023-08-06T06:39:09;5.80;;;5.18;;
16354;SDS011;8287;51.644;8.494;2023-08-06T06:41:36;5.97;;;5.40;;
16354;SDS011;8287;51.644;8.494;2023-08-06T06:44:03;5.43;;;4.95;;
16354;SDS011;8287;51.644;8.494;2023-08-06T06:46:31;5.00;;;4.50;;
16354;SDS011;8287;51.644;8.494;2023-08-06T06:48:59;6.70;;;4.90;;
16354;SDS011;8287;51.644;8.494;2023-08-06T06:51:25;4.00;;;3.60;;
16354;SDS011;8287;51.644;8.494;2023-08-06T06:53:52;3.85;;;3.50;;
16354;SDS011;8287;51.644;8.494;2023-08-06T06:56:18;3.70;;;3.40;;
16354;SDS011;8287;51.644;8.494;2023-08-06T06:58:45;3.65;;;3.20;;
16354;SDS011;8287;51.644;8.494;2023-08-06T07:01:12;5.40;;;3.70;;
16354;SDS011;8287;51.644;8.494;2023-08-06T07:03:38;3.85;;;3.15;;
16354;SDS011;8287;51.644;8.494;2023-08-06T07:06:07;3.28;;;2.90;;
16354;SDS011;8287;51.644;8.494;2023-08-06T07:08:33;6.45;;;3.72;;
16354;SDS011;8287;51.644;8.494;2023-08-06T07:11:01;3.80;;;3.42;;
16354;SDS011;8287;51.644;8.494;2023-08-06T07:13:28;5.47;;;3.47;;
16354;SDS011;8287;51.644;8.494;2023-08-06T07:15:55;4.18;;;2.75;;
16354;SDS011;8287;51.644;8.494;2023-08-06T07:18:22;3.83;;;2.60;;
16354;SDS011;8287;51.644;8.494;2023-08-06T07:20:49;3.22;;;2.67;;
16354;SDS011;8287;51.644;8.494;2023-08-06T07:23:17;2.88;;;2.67;;
16354;SDS011;8287;51.644;8.494;2023-08-06T07:25:45;2.97;;;2.78;;
16354;SDS011;8287;51.644;8.494;2023-08-06T07:28:12;3.45;;;3.15;;
16354;SDS011;8287;51.644;8.494;2023-08-06T07:30:39;3.05;;;2.85;;
16354;SDS011;8287;51.644;8.494;2023-08-06T07:33:06;3.60;;;3.30;;
16354;SDS011;8287;51.644;8.494;2023-08-06T07:35:33;3.25;;;2.58;;
16354;SDS011;8287;51.644;8.494;2023-08-06T07:38:00;3.33;;;2.78;;
16354;SDS011;8287;51.644;8.494;2023-08-06T07:40:28;3.78;;;2.40;;
16354;SDS011;8287;51.644;8.494;2023-08-06T07:42:55;3.28;;;2.88;;
16354;SDS011;8287;51.644;8.494;2023-08-06T07:45:21;2.70;;;2.50;;
16354;SDS011;8287;51.644;8.494;2023-08-06T07:47:48;3.58;;;2.40;;
16354;SDS011;8287;51.644;8.494;2023-08-06T07:50:16;2.42;;;2.22;;
16354;SDS011;8287;51.644;8.494;2023-08-06T07:52:42;1.80;;;1.70;;
16354;SDS011;8287;51.644;8.494;2023-08-06T07:55:09;1.77;;;1.67;;
16354;SDS011;8287;51.644;8.494;2023-08-06T07:57:37;2.05;;;1.85;;
16354;SDS011;8287;51.644;8.494;2023-08-06T08:00:04;3.75;;;1.83;;
16354;SDS011;8287;51.644;8.494;2023-08-06T08:02:32;2.90;;;1.52;;
16354;SDS011;8287;51.644;8.494;2023-08-06T08:04:58;3.65;;;1.60;;
16354;SDS011;8287;51.644;8.494;2023-08-06T08:07:25;2.08;;;1.60;;
16354;SDS011;8287;51.644;8.494;2023-08-06T08:09:54;4.18;;;1.20;;
16354;SDS011;8287;51.644;8.494;2023-08-06T08:12:20;1.85;;;1.30;;
16354;SDS011;8287;51.644;8.494;2023-08-06T08:14:48;2.13;;;1.63;;
16354;SDS011;8287;51.644;8.494;2023-08-06T08:17:15;2.42;;;1.70;;
16354;SDS011;8287;51.644;8.494;2023-08-06T08:19:41;3.65;;;1.77;;
16354;SDS011;8287;51.644;8.494;2023-08-06T08:22:08;1.60;;;1.50;;
16354;SDS011;8287;51.644;8.494;2023-08-06T08:24:35;1.90;;;1.50;;
16354;SDS011;8287;51.644;8.494;2023-08-06T08:27:01;2.10;;;1.60;;
16354;SDS011;8287;51.644;8.494;2023-08-06T08:29:28;1.40;;;1.30;;
16354;SDS011;8287;51.644;8.494;2023-08-06T08:31:56;1.50;;;1.40;;
16354;SDS011;8287;51.644;8.494;2023-08-06T08:34:23;1.63;;;1.52;;
16354;SDS011;8287;51.644;8.494;2023-08-06T08:36:49;1.67;;;1.48;;
16354;SDS011;8287;51.644;8.494;2023-08-06T08:39:16;1.92;;;1.63;;
16354;SDS011;8287;51.644;8.494;2023-08-06T08:41:43;1.70;;;1.60;;
16354;SDS011;8287;51.644;8.494;2023-08-06T08:44:09;3.22;;;1.90;;
16354;SDS011;8287;51.644;8.494;2023-08-06T08:46:37;1.85;;;1.48;;
16354;SDS011;8287;51.644;8.494;2023-08-06T08:49:07;3.50;;;1.95;;
16354;SDS011;8287;51.644;8.494;2023-08-06T08:51:34;3.05;;;2.05;;
16354;SDS011;8287;51.644;8.494;2023-08-06T08:54:02;1.75;;;1.65;;
16354;SDS011;8287;51.644;8.494;2023-08-06T08:56:29;3.63;;;1.90;;
16354;SDS011;8287;51.644;8.494;2023-08-06T08:58:57;2.13;;;1.88;;
16354;SDS011;8287;51.644;8.494;2023-08-06T09:01:24;2.72;;;2.10;;
16354;SDS011;8287;51.644;8.494;2023-08-06T09:03:51;2.85;;;1.80;;
16354;SDS011;8287;51.644;8.494;2023-08-06T09:06:21;4.93;;;2.10;;
16354;SDS011;8287;51.644;8.494;2023-08-06T09:08:51;2.33;;;1.73;;
16354;SDS011;8287;51.644;8.494;2023-08-06T09:11:27;3.15;;;1.95;;
16354;SDS011;8287;51.644;8.494;2023-08-06T09:13:53;1.98;;;1.88;;
16354;SDS011;8287;51.644;8.494;2023-08-06T09:16:21;3.53;;;1.73;;
16354;SDS011;8287;51.644;8.494;2023-08-06T09:18:48;2.10;;;1.75;;
16354;SDS011;8287;51.644;8.494;2023-08-06T09:21:15;1.95;;;1.80;;
16354;SDS011;8287;51.644;8.494;2023-08-06T09:23:43;2.00;;;1.80;;
16354;SDS011;8287;51.644;8.494;2023-08-06T09:26:11;3.10;;;2.15;;
16354;SDS011;8287;51.644;8.494;2023-08-06T09:28:38;1.90;;;1.80;;
16354;SDS011;8287;51.644;8.494;2023-08-06T09:31:08;3.58;;;1.92;;
16354;SDS011;8287;51.644;8.494;2023-08-06T09:33:35;2.20;;;2.00;;
16354;SDS011;8287;51.644;8.494;2023-08-06T09:36:09;2.78;;;1.75;;
16354;SDS011;8287;51.644;8.494;2023-08-06T09:38:39;2.33;;;1.83;;
16354;SDS011;8287;51.644;8.494;2023-08-06T09:41:08;1.60;;;1.50;;
16354;SDS011;8287;51.644;8.494;2023-08-06T09:43:44;2.22;;;2.03;;
16354;SDS011;8287;51.644;8.494;2023-08-06T09:46:11;5.32;;;2.20;;
16354;SDS011;8287;51.644;8.494;2023-08-06T09:48:39;5.97;;;2.08;;
16354;SDS011;8287;51.644;8.494;2023-08-06T09:51:06;5.95;;;2.47;;
16354;SDS011;8287;51.644;8.494;2023-08-06T09:53:35;8.25;;;2.20;;
16354;SDS011;8287;51.644;8.494;2023-08-06T09:56:03;3.92;;;2.00;;
16354;SDS011;8287;51.644;8.494;2023-08-06T09:58:31;4.28;;;2.55;;
16354;SDS011;8287;51.644;8.494;2023-08-06T10:00:58;4.40;;;2.47;;
16354;SDS011;8287;51.644;8.494;2023-08-06T10:03:26;4.13;;;1.92;;
16354;SDS011;8287;51.644;8.494;2023-08-06T10:05:55;3.20;;;2.00;;
16354;SDS011;8287;51.644;8.494;2023-08-06T10:08:22;4.32;;;1.90;;
16354;SDS011;8287;51.644;8.494;2023-08-06T10:10:49;2.15;;;1.63;;
16354;SDS011;8287;51.644;8.494;2023-08-06T10:13:16;2.33;;;2.13;;
16354;SDS011;8287;51.644;8.494;2023-08-06T10:15:45;1.98;;;1.70;;
16354;SDS011;8287;51.644;8.494;2023-08-06T10:18:12;2.65;;;1.50;;
16354;SDS011;8287;51.644;8.494;2023-08-06T10:20:43;1.42;;;1.33;;
16354;SDS011;8287;51.644;8.494;2023-08-06T10:23:09;2.22;;;2.00;;
16354;SDS011;8287;51.644;8.494;2023-08-06T10:25:40;2.70;;;2.10;;
16354;SDS011;8287;51.644;8.494;2023-08-06T10:28:07;2.33;;;1.40;;
16354;SDS011;8287;51.644;8.494;2023-08-06T10:30:41;1.55;;;1.25;;
16354;SDS011;8287;51.644;8.494;2023-08-06T10:33:10;2.08;;;1.67;;
16354;SDS011;8287;51.644;8.494;2023-08-06T10:35:38;1.70;;;1.60;;
16354;SDS011;8287;51.644;8.494;2023-08-06T10:38:09;1.95;;;1.73;;
16354;SDS011;8287;51.644;8.494;2023-08-06T10:40:37;1.75;;;1.65;;
16354;SDS011;8287;51.644;8.494;2023-08-06T10:43:06;2.75;;;1.80;;
16354;SDS011;8287;51.644;8.494;2023-08-06T10:45:35;1.98;;;1.77;;
16354;SDS011;8287;51.644;8.494;2023-08-06T10:48:03;1.45;;;1.20;;
16354;SDS011;8287;51.644;8.494;2023-08-06T10:50:31;2.03;;;1.92;;
16354;SDS011;8287;51.644;8.494;2023-08-06T10:53:03;3.25;;;1.83;;
16354;SDS011;8287;51.644;8.494;2023-08-06T10:55:30;2.63;;;1.98;;
16354;SDS011;8287;51.644;8.494;2023-08-06T10:57:57;2.08;;;1.55;;
16354;SDS011;8287;51.644;8.494;2023-08-06T11:00:24;3.22;;;1.65;;
16354;SDS011;8287;51.644;8.494;2023-08-06T11:02:51;2.28;;;1.70;;
16354;SDS011;8287;51.644;8.494;2023-08-06T11:05:19;2.20;;;1.55;;
16354;SDS011;8287;51.644;8.494;2023-08-06T11:07:47;2.30;;;1.40;;
16354;SDS011;8287;51.644;8.494;2023-08-06T11:10:16;5.57;;;1.98;;
16354;SDS011;8287;51.644;8.494;2023-08-06T11:12:43;2.13;;;1.20;;
16354;SDS011;8287;51.644;8.494;2023-08-06T11:15:10;2.65;;;1.40;;
16354;SDS011;8287;51.644;8.494;2023-08-06T11:17:37;3.17;;;1.38;;
16354;SDS011;8287;51.644;8.494;2023-08-06T11:20:06;2.70;;;1.40;;
16354;SDS011;8287;51.644;8.494;2023-08-06T11:22:33;2.65;;;1.50;;
16354;SDS011;8287;51.644;8.494;2023-08-06T11:25:03;2.60;;;1.50;;
16354;SDS011;8287;51.644;8.494;2023-08-06T11:27:31;14.85;;;11.23;;
16354;SDS011;8287;51.644;8.494;2023-08-06T11:29:58;11.15;;;8.93;;
16354;SDS011;8287;51.644;8.494;2023-08-06T11:32:25;10.77;;;9.77;;
16354;SDS011;8287;51.644;8.494;2023-08-06T11:34:52;1.95;;;1.85;;
16354;SDS011;8287;51.644;8.494;2023-08-06T11:37:20;1.95;;;1.60;;
16354;SDS011;8287;51.644;8.494;2023-08-06T11:39:49;1.52;;;1.27;;
16354;SDS011;8287;51.644;8.494;2023-08-06T11:42:17;1.20;;;1.10;;
16354;SDS011;8287;51.644;8.494;2023-08-06T11:44:44;3.60;;;1.27;;
16354;SDS011;8287;51.644;8.494;2023-08-06T11:47:14;1.38;;;1.20;;
16354;SDS011;8287;51.644;8.494;2023-08-06T11:49:43;1.55;;;1.27;;
16354;SDS011;8287;51.644;8.494;2023-08-06T11:52:16;1.63;;;1.10;;
16354;SDS011;8287;51.644;8.494;2023-08-06T11:54:44;1.45;;;1.05;;
16354;SDS011;8287;51.644;8.494;2023-08-06T11:57:11;1.08;;;0.85;;
16354;SDS011;8287;51.644;8.494;2023-08-06T11:59:40;1.15;;;1.05;;
16354;SDS011;8287;51.644;8.494;2023-08-06T12:02:08;1.83;;;1.30;;
16354;SDS011;8287;51.644;8.494;2023-08-06T12:07:30;2.38;;;1.33;;
16354;SDS011;8287;51.644;8.494;2023-08-06T12:09:57;0.80;;;0.80;;
16354;SDS011;8287;51.644;8.494;2023-08-06T12:12:24;0.80;;;0.80;;
16354;SDS011;8287;51.644;8.494;2023-08-06T12:14:52;2.55;;;0.98;;
16354;SDS011;8287;51.644;8.494;2023-08-06T12:17:19;1.00;;;0.90;;
16354;SDS011;8287;51.644;8.494;2023-08-06T12:19:46;1.10;;;1.00;;
16354;SDS011;8287;51.644;8.494;2023-08-06T12:22:13;1.63;;;1.10;;
16354;SDS011;8287;51.644;8.494;2023-08-06T12:24:43;1.23;;;0.98;;
16354;SDS011;8287;51.644;8.494;2023-08-06T12:27:13;1.25;;;1.08;;
16354;SDS011;8287;51.644;8.494;2023-08-06T12:29:40;1.40;;;1.02;;
16354;SDS011;8287;51.644;8.494;2023-08-06T12:32:10;1.48;;;1.17;;
16354;SDS011;8287;51.644;8.494;2023-08-06T12:34:37;1.85;;;1.13;;
16354;SDS011;8287;51.644;8.494;2023-08-06T12:37:04;1.17;;;1.08;;
16354;SDS011;8287;51.644;8.494;2023-08-06T12:39:31;2.17;;;0.98;;
16354;SDS011;8287;51.644;8.494;2023-08-06T12:41:58;3.17;;;1.10;;
16354;SDS011;8287;51.644;8.494;2023-08-06T12:44:25;1.50;;;1.00;;
16354;SDS011;8287;51.644;8.494;2023-08-06T12:46:54;0.82;;;0.73;;
16354;SDS011;8287;51.644;8.494;2023-08-06T12:49:22;2.20;;;1.02;;
16354;SDS011;8287;51.644;8.494;2023-08-06T12:51:50;1.25;;;1.15;;
16354;SDS011;8287;51.644;8.494;2023-08-06T12:54:17;1.95;;;0.98;;
16354;SDS011;8287;51.644;8.494;2023-08-06T12:56:44;1.10;;;1.00;;
16354;SDS011;8287;51.644;8.494;2023-08-06T12:59:11;0.93;;;0.90;;
16354;SDS011;8287;51.644;8.494;2023-08-06T13:01:40;1.50;;;1.40;;
16354;SDS011;8287;51.644;8.494;2023-08-06T13:04:06;2.05;;;1.45;;
16354;SDS011;8287;51.644;8.494;2023-08-06T13:06:34;1.67;;;1.25;;
16354;SDS011;8287;51.644;8.494;2023-08-06T13:09:02;2.28;;;1.10;;
16354;SDS011;8287;51.644;8.494;2023-08-06T13:11:29;1.75;;;1.25;;
16354;SDS011;8287;51.644;8.494;2023-08-06T13:13:58;0.82;;;0.80;;
16354;SDS011;8287;51.644;8.494;2023-08-06T13:16:29;3.92;;;1.10;;
16354;SDS011;8287;51.644;8.494;2023-08-06T13:18:56;1.88;;;1.20;;
16354;SDS011;8287;51.644;8.494;2023-08-06T13:21:23;0.93;;;0.93;;
16354;SDS011;8287;51.644;8.494;2023-08-06T13:23:51;1.30;;;1.20;;
16354;SDS011;8287;51.644;8.494;2023-08-06T13:26:18;2.85;;;1.50;;
16354;SDS011;8287;51.644;8.494;2023-08-06T13:28:44;1.33;;;1.00;;
16354;SDS011;8287;51.644;8.494;2023-08-06T13:31:11;3.25;;;1.17;;
16354;SDS011;8287;51.644;8.494;2023-08-06T13:33:38;1.17;;;1.08;;
16354;SDS011;8287;51.644;8.494;2023-08-06T13:36:04;2.15;;;1.42;;
16354;SDS011;8287;51.644;8.494;2023-08-06T13:38:31;1.10;;;1.08;;
16354;SDS011;8287;51.644;8.494;2023-08-06T13:40:59;1.33;;;1.15;;
16354;SDS011;8287;51.644;8.494;2023-08-06T13:43:28;1.85;;;1.02;;
16354;SDS011;8287;51.644;8.494;2023-08-06T13:45:55;2.53;;;1.67;;
16354;SDS011;8287;51.644;8.494;2023-08-06T13:48:21;2.53;;;1.88;;
16354;SDS011;8287;51.644;8.494;2023-08-06T13:50:48;2.55;;;1.75;;
16354;SDS011;8287;51.644;8.494;2023-08-06T13:53:15;5.45;;;2.45;;
16354;SDS011;8287;51.644;8.494;2023-08-06T13:55:41;2.28;;;2.05;;
16354;SDS011;8287;51.644;8.494;2023-08-06T13:58:12;1.90;;;1.80;;
16354;SDS011;8287;51.644;8.494;2023-08-06T14:00:39;2.20;;;2.00;;
16354;SDS011;8287;51.644;8.494;2023-08-06T14:03:06;2.40;;;1.60;;
16354;SDS011;8287;51.644;8.494;2023-08-06T14:05:33;14.32;;;1.42;;
16354;SDS011;8287;51.644;8.494;2023-08-06T14:08:00;1.58;;;1.48;;
16354;SDS011;8287;51.644;8.494;2023-08-06T14:10:27;1.40;;;1.30;;
16354;SDS011;8287;51.644;8.494;2023-08-06T14:12:53;1.77;;;1.08;;
16354;SDS011;8287;51.644;8.494;2023-08-06T14:15:21;2.13;;;0.90;;
16354;SDS011;8287;51.644;8.494;2023-08-06T14:17:48;1.00;;;1.00;;
16354;SDS011;8287;51.644;8.494;2023-08-06T14:20:15;1.27;;;1.17;;
16354;SDS011;8287;51.644;8.494;2023-08-06T14:22:41;1.77;;;1.10;;
16354;SDS011;8287;51.644;8.494;2023-08-06T14:25:08;1.42;;;1.00;;
16354;SDS011;8287;51.644;8.494;2023-08-06T14:27:35;3.63;;;1.08;;
16354;SDS011;8287;51.644;8.494;2023-08-06T14:30:04;1.25;;;1.00;;
16354;SDS011;8287;51.644;8.494;2023-08-06T14:32:33;2.95;;;1.55;;
16354;SDS011;8287;51.644;8.494;2023-08-06T14:35:00;2.60;;;1.10;;
16354;SDS011;8287;51.644;8.494;2023-08-06T14:37:26;1.17;;;1.17;;
16354;SDS011;8287;51.644;8.494;2023-08-06T14:39:53;2.58;;;1.48;;
16354;SDS011;8287;51.644;8.494;2023-08-06T14:42:20;1.38;;;1.10;;
16354;SDS011;8287;51.644;8.494;2023-08-06T14:44:47;1.52;;;0.98;;
16354;SDS011;8287;51.644;8.494;2023-08-06T14:47:13;2.53;;;1.02;;
16354;SDS011;8287;51.644;8.494;2023-08-06T14:49:41;0.70;;;0.70;;
16354;SDS011;8287;51.644;8.494;2023-08-06T14:52:08;1.00;;;1.00;;
16354;SDS011;8287;51.644;8.494;2023-08-06T14:54:35;2.58;;;1.40;;
16354;SDS011;8287;51.644;8.494;2023-08-06T14:57:02;1.50;;;1.40;;
16354;SDS011;8287;51.644;8.494;2023-08-06T14:59:29;2.08;;;1.70;;
16354;SDS011;8287;51.644;8.494;2023-08-06T15:01:56;2.33;;;1.60;;
16354;SDS011;8287;51.644;8.494;2023-08-06T15:04:22;1.73;;;1.60;;